createdAt,value
2023-02-02T00:00:57.151Z,99011.88
2023-02-02T00:03:30.982Z,99015.84
2023-02-02T00:06:04.109Z,99020.13
2023-02-02T00:08:38.169Z,99022.72
2023-02-02T00:11:10.054Z,99025.88
2023-02-02T00:13:42.113Z,99022.91
2023-02-02T00:16:29.105Z,99029.09
2023-02-02T00:19:15.780Z,99029.50
2023-02-02T00:21:48.412Z,99028.56
2023-02-02T00:24:20.430Z,99034.47
2023-02-02T00:26:57.569Z,99026.38
2023-02-02T00:29:31.153Z,99023.63
2023-02-02T00:32:02.824Z,99026.94
2023-02-02T00:34:34.480Z,99025.25
2023-02-02T00:37:06.850Z,99028.72
2023-02-02T00:39:41.545Z,99032.16
2023-02-02T00:42:13.410Z,99033.81
2023-02-02T00:45:03.648Z,99038.47
2023-02-02T00:47:35.950Z,99047.13
2023-02-02T00:50:08.595Z,99048.09
2023-02-02T00:52:43.429Z,99039.03
2023-02-02T00:55:15.522Z,99050.59
2023-02-02T00:57:47.504Z,99047.47
2023-02-02T01:00:23.586Z,99050.38
2023-02-02T01:02:56.077Z,99041.59
2023-02-02T01:05:27.771Z,99035.53
2023-02-02T01:07:59.596Z,99043.50
2023-02-02T01:10:34.094Z,99037.44
2023-02-02T01:13:05.955Z,99038.41
2023-02-02T01:15:37.656Z,99038.97
2023-02-02T01:18:09.624Z,99032.63
2023-02-02T01:20:41.285Z,99030.31
2023-02-02T01:23:13.094Z,99038.56
2023-02-02T01:25:45.742Z,99032.22
2023-02-02T01:28:17.409Z,99032.22
2023-02-02T01:30:51.776Z,99036.63
2023-02-02T01:33:25.314Z,99035.81
2023-02-02T01:35:56.988Z,99037.31
2023-02-02T01:38:28.708Z,99035.84
2023-02-02T01:41:01.075Z,99039.00
2023-02-02T01:43:42.942Z,99043.00
2023-02-02T01:46:22.007Z,99041.75
2023-02-02T01:49:14.461Z,99042.31
2023-02-02T01:51:53.493Z,99041.47
2023-02-02T01:54:36.126Z,99048.50
2023-02-02T01:57:26.032Z,99050.28
2023-02-02T02:00:00.798Z,99042.56
2023-02-02T02:02:32.795Z,99051.50
2023-02-02T02:05:06.105Z,99054.66
2023-02-02T02:07:42.247Z,99057.28
2023-02-02T02:10:13.951Z,99050.28
2023-02-02T02:12:48.114Z,99056.34
2023-02-02T02:15:39.801Z,99061.69
2023-02-02T02:18:35.989Z,99047.00
2023-02-02T02:21:56.011Z,99060.19
2023-02-02T02:24:49.654Z,99046.53
2023-02-02T02:27:21.335Z,99051.75
2023-02-02T02:30:11.476Z,99042.56
2023-02-02T02:32:59.111Z,99038.44
2023-02-02T02:35:51.563Z,99041.84
2023-02-02T02:38:44.536Z,99038.28
2023-02-02T02:41:22.203Z,99043.91
2023-02-02T02:44:08.356Z,99045.41
2023-02-02T02:46:40.241Z,99042.13
2023-02-02T02:49:13.756Z,99037.56
2023-02-02T02:51:50.615Z,99031.94
2023-02-02T02:54:35.962Z,99030.97
2023-02-02T02:57:41.189Z,99031.56
2023-02-02T03:00:13.530Z,99030.72
2023-02-02T03:02:54.172Z,99036.38
2023-02-02T03:05:37.868Z,99038.53
2023-02-02T03:08:34.093Z,99028.75
2023-02-02T03:11:07.928Z,99030.78
2023-02-02T03:13:41.557Z,99031.31
2023-02-02T03:16:15.665Z,99039.31
2023-02-02T03:18:47.514Z,99038.47
2023-02-02T03:21:19.210Z,99033.50
2023-02-02T03:23:50.901Z,99043.13
2023-02-02T03:26:22.881Z,99044.78
2023-02-02T03:28:57.300Z,99046.44
2023-02-02T03:31:29.978Z,99049.44
2023-02-02T03:34:01.651Z,99051.34
2023-02-02T03:36:36.343Z,99049.56
2023-02-02T03:39:08.110Z,99053.84
2023-02-02T03:41:39.821Z,99049.16
2023-02-02T03:44:11.808Z,99052.72
2023-02-02T03:46:43.540Z,99049.97
2023-02-02T03:49:15.268Z,99053.53
2023-02-02T03:51:47.064Z,99046.66
2023-02-02T03:54:18.723Z,99043.34
2023-02-02T03:56:50.401Z,99049.97
2023-02-02T03:59:22.063Z,99045.31
2023-02-02T04:01:53.768Z,99054.78
2023-02-02T04:04:25.420Z,99061.66
2023-02-02T04:06:58.750Z,99055.88
2023-02-02T04:09:30.423Z,99061.78
2023-02-02T04:12:02.302Z,99063.75
2023-02-02T04:14:34.050Z,99067.75
2023-02-02T04:17:05.747Z,99064.63
2023-02-02T04:19:37.433Z,99064.22
2023-02-02T04:22:09.118Z,99066.81
2023-02-02T04:24:40.774Z,99061.22
2023-02-02T04:27:19.531Z,99064.38
2023-02-02T04:29:51.465Z,99073.06
2023-02-02T04:32:26.207Z,99065.88
2023-02-02T04:34:57.902Z,99074.44
2023-02-02T04:37:31.664Z,99076.63
2023-02-02T04:40:03.582Z,99084.22
2023-02-02T04:42:35.303Z,99080.50
2023-02-02T04:45:07.529Z,99090.22
2023-02-02T04:47:39.253Z,99093.66
2023-02-02T04:50:12.118Z,99098.66
2023-02-02T04:52:47.241Z,99098.53
2023-02-02T04:55:18.997Z,99100.59
2023-02-02T04:57:50.787Z,99107.03
2023-02-02T05:00:22.477Z,99106.19
2023-02-02T05:02:54.229Z,99088.63
2023-02-02T05:05:26.177Z,99092.31
2023-02-02T05:07:58.016Z,99102.09
2023-02-02T05:10:29.769Z,99112.66
2023-02-02T05:13:01.472Z,99103.88
2023-02-02T05:15:33.185Z,99109.78
2023-02-02T05:18:04.866Z,99114.47
2023-02-02T05:20:36.513Z,99109.69
2023-02-02T05:23:08.524Z,99115.72
2023-02-02T05:25:40.192Z,99123.31
2023-02-02T05:28:11.966Z,99129.63
2023-02-02T05:30:43.620Z,99124.38
2023-02-02T05:33:15.934Z,99132.09
2023-02-02T05:35:48.864Z,99138.72
2023-02-02T05:38:20.672Z,99134.31
2023-02-02T05:40:52.348Z,99145.47
2023-02-02T05:43:32.365Z,99151.94
2023-02-02T05:46:04.217Z,99153.97
2023-02-02T05:48:36.015Z,99161.56
2023-02-02T05:51:42.660Z,99163.75
2023-02-02T05:54:19.388Z,99153.03
2023-02-02T05:56:53.252Z,99158.00
2023-02-02T05:59:25.292Z,99162.28
2023-02-02T06:01:57.097Z,99159.53
2023-02-02T06:04:28.810Z,99162.84
2023-02-02T06:07:00.504Z,99180.31
2023-02-02T06:09:32.247Z,99174.25
2023-02-02T06:12:07.098Z,99170.56
2023-02-02T06:14:38.659Z,99182.66
2023-02-02T06:17:10.522Z,99181.44
2023-02-02T06:19:42.252Z,99186.66
2023-02-02T06:22:14.041Z,99188.56
2023-02-02T06:24:46.782Z,99187.38
2023-02-02T06:27:19.469Z,99187.38
2023-02-02T06:29:51.164Z,99189.56
2023-02-02T06:32:22.792Z,99188.63
2023-02-02T06:34:54.495Z,99190.13
2023-02-02T06:37:26.106Z,99186.31
2023-02-02T06:39:57.782Z,99195.94
2023-02-02T06:42:30.637Z,99198.13
2023-02-02T06:45:03.735Z,99208.88
2023-02-02T06:47:35.468Z,99203.66
2023-02-02T06:50:07.548Z,99212.88
2023-02-02T06:52:39.210Z,99213.28
2023-02-02T06:55:10.873Z,99213.28
2023-02-02T06:57:42.731Z,99212.47
2023-02-02T07:00:14.875Z,99221.00
2023-02-02T07:02:49.343Z,99230.53
2023-02-02T07:05:24.050Z,99222.69
2023-02-02T07:07:55.974Z,99230.38
2023-02-02T07:11:10.942Z,99223.47
2023-02-02T07:13:19.317Z,99234.41
2023-02-02T07:15:51.026Z,99234.41
2023-02-02T07:18:22.944Z,99228.88
2023-02-02T07:20:54.621Z,99229.72
2023-02-02T07:23:27.731Z,99233.03
2023-02-02T07:26:07.853Z,99234.13
2023-02-02T07:28:39.732Z,99231.25
2023-02-02T07:31:21.112Z,99242.44
2023-02-02T07:33:53.865Z,99243.50
2023-02-02T07:36:25.830Z,99242.03
2023-02-02T07:38:57.875Z,99244.22
2023-02-02T07:41:34.594Z,99239.69
2023-02-02T07:44:07.500Z,99241.50
2023-02-02T07:46:39.276Z,99236.94
2023-02-02T07:49:17.178Z,99239.84
2023-02-02T07:51:49.311Z,99244.13
2023-02-02T07:54:21.350Z,99242.06
2023-02-02T07:56:53.111Z,99251.28
2023-02-02T07:59:24.765Z,99250.88
2023-02-02T08:01:56.506Z,99259.41
2023-02-02T08:04:28.182Z,99254.75
2023-02-02T08:07:00.313Z,99251.84
2023-02-02T08:09:33.041Z,99260.78
2023-02-02T08:12:04.934Z,99252.53
2023-02-02T08:14:36.827Z,99257.75
2023-02-02T08:17:09.012Z,99261.50
2023-02-02T08:19:45.209Z,99271.97
2023-02-02T08:22:18.352Z,99265.06
2023-02-02T08:24:51.110Z,99276.38
2023-02-02T08:27:22.812Z,99276.50
2023-02-02T08:29:54.490Z,99280.78
2023-02-02T08:32:31.325Z,99286.69
2023-02-02T08:35:03.025Z,99297.97
2023-02-02T08:37:34.674Z,99295.50
2023-02-02T08:40:07.112Z,99296.19
2023-02-02T08:42:38.817Z,99306.78
2023-02-02T08:46:01.351Z,99304.19
2023-02-02T08:48:11.782Z,99309.28
2023-02-02T08:50:43.965Z,99301.16
2023-02-02T08:53:15.627Z,99308.88
2023-02-02T08:55:47.554Z,99306.13
2023-02-02T08:58:19.240Z,99312.75
2023-02-02T09:00:53.346Z,99309.03
2023-02-02T09:03:25.087Z,99309.03
2023-02-02T09:05:56.804Z,99312.19
2023-02-02T09:08:28.534Z,99314.69
2023-02-02T09:11:04.686Z,99315.22
2023-02-02T09:13:38.202Z,99315.09
2023-02-02T09:16:11.473Z,99325.44
2023-02-02T09:18:46.205Z,99329.31
2023-02-02T09:21:19.516Z,99323.94
2023-02-02T09:23:53.752Z,99322.97
2023-02-02T09:26:27.972Z,99332.78
2023-02-02T09:29:02.907Z,99334.97
2023-02-02T09:31:35.613Z,99332.47
2023-02-02T09:34:11.176Z,99330.44
2023-02-02T09:36:44.417Z,99337.88
2023-02-02T09:39:20.799Z,99350.97
2023-02-02T09:41:59.927Z,99355.38
2023-02-02T09:44:37.536Z,99358.66
2023-02-02T09:47:27.576Z,99356.22
2023-02-02T09:50:26.379Z,99362.41
2023-02-02T09:53:14.294Z,99355.78
2023-02-02T09:55:54.841Z,99355.25
2023-02-02T09:58:32.869Z,99364.78
2023-02-02T10:01:13.821Z,99362.00
2023-02-02T10:04:09.723Z,99367.81
2023-02-02T10:06:44.835Z,99366.56
2023-02-02T10:09:47.425Z,99371.53
2023-02-02T10:12:38.078Z,99386.84
2023-02-02T10:15:23.138Z,99371.78
2023-02-02T10:18:07.162Z,99356.91
2023-02-02T10:20:54.464Z,99383.25
2023-02-02T10:23:35.146Z,99370.44
2023-02-02T10:26:36.832Z,99374.56
2023-02-02T10:29:27.235Z,99366.00
2023-02-02T10:32:23.397Z,99368.22
2023-02-02T10:35:11.095Z,99369.75
2023-02-02T10:38:09.800Z,99370.88
2023-02-02T10:41:05.534Z,99361.16
2023-02-02T10:43:46.130Z,99368.59
2023-02-02T10:46:43.208Z,99363.72
2023-02-02T10:49:32.697Z,99352.56
2023-02-02T10:52:11.133Z,99367.50
2023-02-02T10:54:57.979Z,99357.81
2023-02-02T10:57:49.539Z,99362.06
2023-02-02T11:00:43.616Z,99358.28
2023-02-02T11:03:17.214Z,99352.75
2023-02-02T11:06:10.563Z,99359.63
2023-02-02T11:08:44.386Z,99352.56
2023-02-02T11:11:33.145Z,99359.78
2023-02-02T11:14:07.743Z,99346.66
2023-02-02T11:16:44.272Z,99352.22
2023-02-02T11:19:22.365Z,99359.28
2023-02-02T11:21:59.723Z,99363.16
2023-02-02T11:24:54.336Z,99360.94
2023-02-02T11:27:37.349Z,99361.09
2023-02-02T11:30:27.391Z,99361.31
2023-02-02T11:33:34.367Z,99361.75
2023-02-02T11:36:21.270Z,99343.78
2023-02-02T11:39:16.273Z,99360.53
2023-02-02T11:41:50.652Z,99356.34
2023-02-02T11:44:26.496Z,99350.06
2023-02-02T11:47:04.769Z,99366.50
2023-02-02T11:49:45.157Z,99351.06
2023-02-02T11:52:23.272Z,99348.34
2023-02-02T11:55:00.985Z,99361.34
2023-02-02T11:57:32.758Z,99365.06
2023-02-02T12:00:18.146Z,99356.22
2023-02-02T12:02:49.867Z,99358.25
2023-02-02T12:05:27.605Z,99367.09
2023-02-02T12:08:02.687Z,99364.03
2023-02-02T12:10:50.744Z,99371.81
2023-02-02T12:13:37.687Z,99370.81
2023-02-02T12:17:07.749Z,99376.47
2023-02-02T12:19:51.459Z,99371.81
2023-02-02T12:22:23.103Z,99370.97
2023-02-02T12:25:19.047Z,99368.78
2023-02-02T12:28:26.001Z,99370.16
2023-02-02T12:31:04.980Z,99370.13
2023-02-02T12:33:55.157Z,99360.31
2023-02-02T12:36:46.670Z,99366.91
2023-02-02T12:39:24.206Z,99358.00
2023-02-02T12:42:19.125Z,99364.91
2023-02-02T12:44:54.133Z,99356.19
2023-02-02T12:47:31.479Z,99372.53
2023-02-02T12:50:25.020Z,99368.25
2023-02-02T12:53:28.286Z,99371.22
2023-02-02T12:57:07.837Z,99360.91
2023-02-02T12:59:48.574Z,99382.00
2023-02-02T13:02:38.929Z,99365.38
2023-02-02T13:05:19.947Z,99364.13
2023-02-02T13:08:33.871Z,99370.91
2023-02-02T13:11:29.994Z,99378.94
2023-02-02T13:14:12.922Z,99370.47
2023-02-02T13:16:49.329Z,99387.53
2023-02-02T13:19:35.975Z,99379.03
2023-02-02T13:22:19.291Z,99375.94
2023-02-02T13:24:55.579Z,99397.81
2023-02-02T13:27:31.514Z,99379.75
2023-02-02T13:30:14.354Z,99388.06
2023-02-02T13:32:48.072Z,99392.09
2023-02-02T13:35:55.458Z,99394.94
2023-02-02T13:38:42.113Z,99389.16
2023-02-02T13:41:14.431Z,99399.31
2023-02-02T13:43:57.791Z,99401.09
2023-02-02T13:46:57.339Z,99399.91
2023-02-02T13:49:40.215Z,99406.63
2023-02-02T13:52:39.766Z,99411.28
2023-02-02T13:55:34.493Z,99416.78
2023-02-02T13:58:46.127Z,99422.16
2023-02-02T14:01:19.143Z,99427.66
2023-02-02T14:03:54.745Z,99418.91
2023-02-02T14:06:28.829Z,99420.34
2023-02-02T14:09:04.682Z,99427.91
2023-02-02T14:11:42.538Z,99433.72
2023-02-02T14:14:33.595Z,99435.28
2023-02-02T14:17:19.405Z,99447.31
2023-02-02T14:19:58.676Z,99455.19
2023-02-02T14:22:44.520Z,99461.72
2023-02-02T14:25:36.937Z,99460.47
2023-02-02T14:28:32.968Z,99457.72
2023-02-02T14:31:45.974Z,99473.50
2023-02-02T14:34:43.016Z,99473.66
2023-02-02T14:37:23.860Z,99470.38
2023-02-02T14:39:58.517Z,99487.75
2023-02-02T14:43:30.908Z,99488.88
2023-02-02T14:46:14.996Z,99495.38
2023-02-02T14:48:54.448Z,99508.06
2023-02-02T14:51:28.847Z,99510.41
2023-02-02T14:54:16.979Z,99519.78
2023-02-02T14:56:54.368Z,99517.03
2023-02-02T14:59:38.694Z,99524.22
2023-02-02T15:02:40.049Z,99529.88
2023-02-02T15:05:30.882Z,99542.69
2023-02-02T15:08:23.412Z,99548.47
2023-02-02T15:10:55.058Z,99545.44
2023-02-02T15:13:37.647Z,99549.03
2023-02-02T15:16:20.306Z,99561.47
2023-02-02T15:19:08.434Z,99563.38
2023-02-02T15:21:47.955Z,99570.53
2023-02-02T15:24:26.172Z,99579.50
2023-02-02T15:27:00.834Z,99579.66
2023-02-02T15:29:42.089Z,99579.66
2023-02-02T15:32:20.679Z,99583.38
2023-02-02T15:34:58.369Z,99595.50
2023-02-02T15:37:41.607Z,99594.81
2023-02-02T15:40:16.385Z,99596.88
2023-02-02T15:43:14.096Z,99597.03
2023-02-02T15:45:54.895Z,99607.72
2023-02-02T15:48:35.229Z,99615.69
2023-02-02T15:51:16.067Z,99623.13
2023-02-02T15:53:52.434Z,99632.75
2023-02-02T15:56:24.314Z,99631.81
2023-02-02T15:59:01.782Z,99643.31
2023-02-02T16:01:47.252Z,99645.75
2023-02-02T16:04:22.325Z,99651.66
2023-02-02T16:06:53.947Z,99652.97
2023-02-02T16:09:34.052Z,99653.50
2023-02-02T16:12:08.948Z,99664.50
2023-02-02T16:14:46.822Z,99664.72
2023-02-02T16:17:22.427Z,99674.88
2023-02-02T16:20:11.529Z,99677.06
2023-02-02T16:22:46.992Z,99675.50
2023-02-02T16:25:22.996Z,99681.72
2023-02-02T16:27:55.269Z,99688.84
2023-02-02T16:30:30.327Z,99684.19
2023-02-02T16:33:27.093Z,99699.44
2023-02-02T16:36:03.167Z,99701.00
2023-02-02T16:38:37.659Z,99706.72
2023-02-02T16:41:12.291Z,99721.16
2023-02-02T16:43:45.112Z,99729.00
2023-02-02T16:46:47.776Z,99742.31
2023-02-02T16:49:24.057Z,99748.38
2023-02-02T16:52:18.850Z,99754.47
2023-02-02T16:54:56.596Z,99759.25
2023-02-02T16:57:34.042Z,99770.66
2023-02-02T17:00:09.069Z,99767.09
2023-02-02T17:02:48.437Z,99771.50
2023-02-02T17:05:24.368Z,99776.63
2023-02-02T17:08:00.489Z,99783.19
2023-02-02T17:10:36.525Z,99787.56
2023-02-02T17:13:34.659Z,99783.19
2023-02-02T17:16:16.326Z,99791.72
2023-02-02T17:18:49.004Z,99789.34
2023-02-02T17:21:25.431Z,99798.84
2023-02-02T17:23:58.267Z,99810.03
2023-02-02T17:26:30.754Z,99810.28
2023-02-02T17:29:05.275Z,99824.31
2023-02-02T17:31:37.111Z,99828.81
2023-02-02T17:34:16.178Z,99843.09
2023-02-02T17:36:47.949Z,99849.28
2023-02-02T17:39:19.618Z,99853.00
2023-02-02T17:41:51.633Z,99857.13
2023-02-02T17:44:23.323Z,99855.25
2023-02-02T17:46:54.982Z,99856.50
2023-02-02T17:49:26.789Z,99864.59
2023-02-02T17:52:01.631Z,99866.31
2023-02-02T17:54:33.546Z,99870.13
2023-02-02T17:57:05.769Z,99876.13
2023-02-02T17:59:41.951Z,99873.13
2023-02-02T18:02:21.160Z,99876.03
2023-02-02T18:04:53.057Z,99879.88
2023-02-02T18:07:24.755Z,99885.81
2023-02-02T18:09:57.975Z,99885.50
2023-02-02T18:12:34.881Z,99891.19
2023-02-02T18:15:12.998Z,99889.06
2023-02-02T18:17:49.300Z,99897.03
2023-02-02T18:20:21.087Z,99896.44
2023-02-02T18:22:52.900Z,99908.00
2023-02-02T18:25:26.067Z,99914.31
2023-02-02T18:27:57.968Z,99904.09
2023-02-02T18:30:29.846Z,99921.72
2023-02-02T18:33:04.482Z,99916.16
2023-02-02T18:35:41.425Z,99921.59
2023-02-02T18:38:15.027Z,99930.78
2023-02-02T18:41:00.142Z,99939.63
2023-02-02T18:43:31.920Z,99935.75
2023-02-02T18:46:08.744Z,99939.66
2023-02-02T18:48:44.639Z,99945.88
2023-02-02T18:51:18.263Z,99942.19
2023-02-02T18:53:52.666Z,99943.94
2023-02-02T18:56:24.377Z,99951.84
2023-02-02T18:58:57.846Z,99947.09
2023-02-02T19:01:32.477Z,99957.81
2023-02-02T19:04:04.700Z,99958.91
2023-02-02T19:06:55.483Z,99970.94
2023-02-02T19:09:27.178Z,99973.72
2023-02-02T19:11:59.205Z,99967.88
2023-02-02T19:14:34.493Z,99966.34
2023-02-02T19:17:17.860Z,99968.34
2023-02-02T19:19:50.324Z,99973.50
2023-02-02T19:22:30.340Z,99969.44
2023-02-02T19:25:14.067Z,99967.56
2023-02-02T19:27:49.773Z,99982.53
2023-02-02T19:30:25.884Z,99984.56
2023-02-02T19:32:58.134Z,99994.00
2023-02-02T19:35:32.073Z,99998.97
2023-02-02T19:38:03.856Z,99998.97
2023-02-02T19:40:36.002Z,100008.16
2023-02-02T19:43:10.344Z,100006.13
2023-02-02T19:45:44.779Z,100013.50
2023-02-02T19:48:28.335Z,100016.94
2023-02-02T19:51:00.404Z,100019.09
2023-02-02T19:53:38.052Z,100018.97
2023-02-02T19:56:29.121Z,100020.03
2023-02-02T19:59:03.067Z,100015.28
2023-02-02T20:01:35.701Z,100015.16
2023-02-02T20:04:15.129Z,100015.44
2023-02-02T20:06:58.428Z,100021.97
2023-02-02T20:09:35.268Z,100021.72
2023-02-02T20:12:27.822Z,100022.56
2023-02-02T20:14:59.743Z,100025.91
2023-02-02T20:17:34.471Z,100022.31
2023-02-02T20:20:29.384Z,100021.47
2023-02-02T20:23:01.108Z,100026.94
2023-02-02T20:25:32.932Z,100026.59
2023-02-02T20:28:21.506Z,100027.69
2023-02-02T20:30:53.289Z,100034.06
2023-02-02T20:33:25.145Z,100043.00
2023-02-02T20:36:01.684Z,100050.59
2023-02-02T20:38:38.600Z,100053.94
2023-02-02T20:41:16.671Z,100057.59
2023-02-02T20:43:48.482Z,100068.19
2023-02-02T20:46:20.280Z,100060.69
2023-02-02T20:48:52.051Z,100068.03
2023-02-02T20:51:25.841Z,100069.09
2023-02-02T20:53:57.598Z,100071.38
2023-02-02T20:56:29.358Z,100072.19
2023-02-02T20:59:01.205Z,100072.31
2023-02-02T21:01:36.889Z,100069.56
2023-02-02T21:04:13.030Z,100065.19
2023-02-02T21:06:46.394Z,100063.63
2023-02-02T21:09:18.422Z,100066.25
2023-02-02T21:11:50.156Z,100064.22
2023-02-02T21:14:21.842Z,100062.09
2023-02-02T21:17:05.358Z,100065.34
2023-02-02T21:19:44.850Z,100070.78
2023-02-02T21:22:19.293Z,100071.63
2023-02-02T21:24:51.025Z,100079.72
2023-02-02T21:27:22.788Z,100081.84
2023-02-02T21:29:54.539Z,100070.16
2023-02-02T21:32:26.609Z,100076.78
2023-02-02T21:34:58.949Z,100076.31
2023-02-02T21:37:34.722Z,100089.59
2023-02-02T21:40:13.582Z,100089.50
2023-02-02T21:42:49.430Z,100084.16
2023-02-02T21:45:21.098Z,100086.13
2023-02-02T21:47:58.395Z,100080.22
2023-02-02T21:50:44.599Z,100082.94
2023-02-02T21:53:24.694Z,100086.72
2023-02-02T21:55:59.634Z,100082.03
2023-02-02T21:58:38.472Z,100092.75
2023-02-02T22:01:16.384Z,100092.00
2023-02-02T22:03:49.962Z,100093.88
2023-02-02T22:06:32.763Z,100092.22
2023-02-02T22:09:18.200Z,100087.31
2023-02-02T22:11:59.225Z,100090.88
2023-02-02T22:14:48.764Z,100089.84
2023-02-02T22:17:40.102Z,100095.25
2023-02-02T22:20:14.851Z,100101.56
2023-02-02T22:22:47.385Z,100096.16
2023-02-02T22:25:37.117Z,100093.16
2023-02-02T22:28:22.532Z,100092.19
2023-02-02T22:30:58.562Z,100097.94
2023-02-02T22:33:30.317Z,100094.69
2023-02-02T22:36:03.771Z,100092.59
2023-02-02T22:38:35.443Z,100095.69
2023-02-02T22:41:09.019Z,100104.72
2023-02-02T22:43:41.133Z,100102.75
2023-02-02T22:46:15.893Z,100098.31
2023-02-02T22:48:47.586Z,100103.69
2023-02-02T22:51:19.281Z,100095.19
2023-02-02T22:53:54.028Z,100100.34
2023-02-02T22:56:26.555Z,100100.22
2023-02-02T22:58:59.225Z,100107.25
2023-02-02T23:01:30.918Z,100111.63
2023-02-02T23:04:08.405Z,100103.38
2023-02-02T23:06:42.234Z,100099.31
2023-02-02T23:09:14.398Z,100095.63
2023-02-02T23:11:49.438Z,100092.31
2023-02-02T23:14:21.211Z,100096.81
2023-02-02T23:16:55.941Z,100100.16
2023-02-02T23:19:27.698Z,100093.47
2023-02-02T23:21:59.419Z,100092.25
2023-02-02T23:24:31.541Z,100085.34
2023-02-02T23:27:03.735Z,100078.34
2023-02-02T23:29:35.414Z,100081.91
2023-02-02T23:32:07.252Z,100076.88
2023-02-02T23:34:38.939Z,100078.53
2023-02-02T23:37:10.655Z,100063.41
2023-02-02T23:39:42.324Z,100069.25
2023-02-02T23:42:17.108Z,100062.47
2023-02-02T23:44:49.067Z,100067.81
2023-02-02T23:47:23.374Z,100068.75
2023-02-02T23:49:58.065Z,100072.31
2023-02-02T23:52:38.276Z,100063.84
2023-02-02T23:55:10.627Z,100064.66
2023-02-02T23:57:42.376Z,100062.78
